createdAt,value
2018-11-10T00:00:18.180Z,260.6
2018-11-10T00:01:18.193Z,260.3
2018-11-10T00:02:18.193Z,260.1
2018-11-10T00:03:18.117Z,260.1
2018-11-10T00:04:18.370Z,260
2018-11-10T00:05:18.267Z,260
2018-11-10T00:06:18.276Z,129.8
2018-11-10T00:07:18.227Z,80.5
2018-11-10T00:08:18.326Z,80.2
2018-11-10T00:09:18.172Z,80.1
2018-11-10T00:10:18.202Z,83.5
2018-11-10T00:11:18.175Z,87
2018-11-10T00:12:18.226Z,94.6
2018-11-10T00:13:18.282Z,92.1
2018-11-10T00:14:18.138Z,98.4
2018-11-10T00:15:18.220Z,96.3
2018-11-10T00:16:18.256Z,103.5
2018-11-10T00:17:18.241Z,103.9
2018-11-10T00:18:18.199Z,92.7
2018-11-10T00:19:18.533Z,85.6
2018-11-10T00:20:18.146Z,82.5
2018-11-10T00:21:18.171Z,81.2
2018-11-10T00:22:18.226Z,80.5
2018-11-10T00:23:18.193Z,80.3
2018-11-10T00:24:18.174Z,80.1
2018-11-10T00:25:18.112Z,80.1
2018-11-10T00:26:18.258Z,80
2018-11-10T00:27:18.134Z,80
2018-11-10T00:28:18.168Z,74.5
2018-11-10T00:29:18.173Z,53.1
2018-11-10T00:30:18.155Z,43.1
2018-11-10T00:31:18.231Z,38.7
2018-11-10T00:32:18.145Z,36.7
2018-11-10T00:33:18.191Z,29.9
2018-11-10T00:34:18.155Z,26.8
2018-11-10T00:35:18.194Z,31.3
2018-11-10T00:36:18.199Z,33.3
2018-11-10T00:37:18.189Z,34.2
2018-11-10T00:38:18.173Z,34.6
2018-11-10T00:39:18.154Z,34.8
2018-11-10T00:40:18.228Z,34.9
2018-11-10T00:41:18.081Z,35
2018-11-10T00:42:18.146Z,35
2018-11-10T00:43:18.230Z,35
2018-11-10T00:44:18.112Z,35
2018-11-10T00:45:18.175Z,29.5
2018-11-10T00:46:21.465Z,346.7
2018-11-10T00:47:18.170Z,321
2018-11-10T00:48:18.159Z,311.7
2018-11-10T00:49:18.134Z,308
2018-11-10T00:50:18.170Z,306.4
2018-11-10T00:51:18.161Z,305.6
2018-11-10T00:52:18.179Z,305.3
2018-11-10T00:53:18.170Z,305.1
2018-11-10T00:54:18.166Z,345.6
2018-11-10T00:55:18.149Z,65.6
2018-11-10T00:56:18.168Z,75.4
2018-11-10T00:57:18.161Z,78.1
2018-11-10T00:58:18.156Z,79.2
2018-11-10T01:00:18.133Z,79.8
2018-11-10T01:01:18.087Z,79.9
2018-11-10T01:02:18.210Z,80
2018-11-10T01:03:18.073Z,80
2018-11-10T01:04:18.127Z,80
2018-11-10T01:05:18.130Z,80
2018-11-10T01:06:18.166Z,80
2018-11-10T01:07:18.176Z,80
2018-11-10T01:08:18.070Z,80
2018-11-10T01:09:18.104Z,80
2018-11-10T01:10:18.102Z,80
2018-11-10T01:11:18.122Z,80
2018-11-10T01:12:18.165Z,80
2018-11-10T01:13:18.097Z,80
2018-11-10T01:14:18.025Z,80
2018-11-10T01:15:18.099Z,80
2018-11-10T01:16:18.164Z,80
2018-11-10T01:17:18.155Z,80
2018-11-10T01:18:18.085Z,71
2018-11-10T01:19:18.092Z,344.3
2018-11-10T01:20:18.164Z,313
2018-11-10T01:21:18.185Z,308
2018-11-10T01:22:18.085Z,306.3
2018-11-10T01:23:18.124Z,305.6
2018-11-10T01:24:18.099Z,305.3
2018-11-10T01:25:18.084Z,305.1
2018-11-10T01:26:18.072Z,303.1
2018-11-10T01:27:18.072Z,303.2
2018-11-10T01:28:18.146Z,304.2
2018-11-10T01:29:18.102Z,304
2018-11-10T01:30:18.043Z,303.7
2018-11-10T01:31:18.137Z,287.4
2018-11-10T01:32:18.117Z,273.2
2018-11-10T01:33:18.127Z,266
2018-11-10T01:34:18.083Z,262.7
2018-11-10T01:35:18.149Z,263.9
2018-11-10T01:36:18.056Z,264.4
2018-11-10T01:37:18.148Z,287.4
2018-11-10T01:38:18.153Z,4.7
2018-11-10T01:39:18.200Z,25.6
2018-11-10T01:40:18.109Z,43.1
2018-11-10T01:41:18.019Z,64.7
2018-11-10T01:42:18.119Z,73.4
2018-11-10T01:43:20.309Z,77
2018-11-10T01:44:18.117Z,78.6
2018-11-10T01:45:18.151Z,97.5
2018-11-10T01:46:19.905Z,112.7
2018-11-10T01:47:18.060Z,119.5
2018-11-10T01:48:18.084Z,122.5
2018-11-10T01:49:18.071Z,123.8
2018-11-10T01:50:18.234Z,124.5
2018-11-10T01:51:18.087Z,124.7
2018-11-10T01:52:18.071Z,124.9
2018-11-10T01:53:18.103Z,124.9
2018-11-10T01:54:18.138Z,125
2018-11-10T01:55:18.696Z,125
2018-11-10T01:56:18.098Z,125
2018-11-10T01:57:18.048Z,125
2018-11-10T01:58:18.098Z,125
2018-11-10T01:59:18.160Z,125
2018-11-10T02:00:18.110Z,125
2018-11-10T02:01:18.064Z,125.4
2018-11-10T02:02:18.149Z,127.8
2018-11-10T02:03:18.072Z,126.3
2018-11-10T02:04:18.107Z,125.6
2018-11-10T02:05:18.113Z,127.1
2018-11-10T02:06:18.073Z,127.3
2018-11-10T02:07:18.073Z,126.1
2018-11-10T02:08:18.103Z,125.5
2018-11-10T02:09:18.991Z,125.8
2018-11-10T02:10:18.113Z,137.9
2018-11-10T02:11:18.090Z,132.4
2018-11-10T02:12:18.167Z,128.4
2018-11-10T02:13:18.115Z,126.6
2018-11-10T02:14:18.026Z,125.7
2018-11-10T02:15:18.052Z,119.5
2018-11-10T02:16:18.142Z,31.7
2018-11-10T02:17:18.029Z,0.2
2018-11-10T02:18:18.075Z,353.8
2018-11-10T02:19:18.031Z,351.6
2018-11-10T02:20:18.089Z,347.8
2018-11-10T02:21:18.094Z,345.8
2018-11-10T02:22:18.084Z,348.1
2018-11-10T02:23:18.063Z,3.2
2018-11-10T02:24:18.030Z,21
2018-11-10T02:25:18.039Z,29.1
2018-11-10T02:26:18.130Z,32.3
2018-11-10T02:27:18.045Z,33.8
2018-11-10T02:28:18.123Z,34.4
2018-11-10T02:29:18.149Z,47.8
2018-11-10T02:30:18.114Z,65.5
2018-11-10T02:31:18.095Z,73.5
2018-11-10T02:32:18.116Z,77
2018-11-10T02:33:18.631Z,78.6
2018-11-10T02:34:18.106Z,79.4
2018-11-10T02:35:21.377Z,79.7
2018-11-10T02:36:18.030Z,79.9
2018-11-10T02:37:18.055Z,79.9
2018-11-10T02:38:18.126Z,80
2018-11-10T02:39:18.119Z,80
2018-11-10T02:40:18.149Z,80
2018-11-10T02:41:17.999Z,80
2018-11-10T02:42:18.053Z,46.3
2018-11-10T02:43:18.067Z,335.3
2018-11-10T02:44:18.077Z,341.1
2018-11-10T02:45:18.137Z,343.7
2018-11-10T02:46:18.041Z,347.2
2018-11-10T02:47:18.101Z,348.8
2018-11-10T02:48:18.150Z,349.4
2018-11-10T02:49:18.070Z,349.7
2018-11-10T02:50:18.126Z,349.9
2018-11-10T02:51:18.080Z,349.9
2018-11-10T02:52:18.037Z,9.9
2018-11-10T02:53:18.076Z,71.5
2018-11-10T02:54:18.112Z,107.2
2018-11-10T02:55:18.073Z,143.2
2018-11-10T02:56:18.102Z,159.3
2018-11-10T02:57:18.042Z,165.4
2018-11-10T02:58:18.082Z,167.9
2018-11-10T02:59:18.043Z,169
2018-11-10T03:00:18.080Z,169.6
2018-11-10T03:01:18.026Z,159.5
2018-11-10T03:02:18.095Z,153.1
2018-11-10T03:03:18.055Z,150.1
2018-11-10T03:04:18.069Z,148.7
2018-11-10T03:05:18.008Z,145.9
2018-11-10T03:06:18.073Z,134.7
2018-11-10T03:07:18.029Z,129.5
2018-11-10T03:08:18.050Z,295.1
2018-11-10T03:09:18.001Z,303.7
2018-11-10T03:10:18.054Z,300.8
2018-11-10T03:11:18.032Z,301.6
2018-11-10T03:12:18.071Z,304.1
2018-11-10T03:13:18.083Z,304.3
2018-11-10T03:14:17.945Z,288.3
2018-11-10T03:15:18.069Z,283.6
2018-11-10T03:16:18.630Z,273
2018-11-10T03:17:18.066Z,265.9
2018-11-10T03:18:18.089Z,262.7
2018-11-10T03:19:18.137Z,261.3
2018-11-10T03:20:18.052Z,260.6
2018-11-10T03:21:18.134Z,260.3
2018-11-10T03:22:18.085Z,260.1
2018-11-10T03:23:18.061Z,260.1
2018-11-10T03:24:18.094Z,260
2018-11-10T03:25:18.007Z,260
2018-11-10T03:26:18.144Z,260
2018-11-10T03:27:18.099Z,260
2018-11-10T03:28:18.058Z,260
2018-11-10T03:29:18.105Z,260
2018-11-10T03:30:17.960Z,260
2018-11-10T03:31:18.151Z,260
2018-11-10T03:32:18.023Z,260
2018-11-10T03:33:18.125Z,260
2018-11-10T03:34:18.016Z,279.7
2018-11-10T03:35:21.952Z,293.7
2018-11-10T03:36:17.939Z,299.3
2018-11-10T03:37:18.058Z,302.4
2018-11-10T03:38:18.030Z,303.5
2018-11-10T03:39:18.068Z,303.3
2018-11-10T03:40:18.091Z,299.7
2018-11-10T03:41:18.023Z,277.8
2018-11-10T03:42:18.111Z,268
2018-11-10T03:43:18.047Z,263.6
2018-11-10T03:44:18.117Z,261.7
2018-11-10T03:45:17.984Z,260.8
2018-11-10T03:46:17.957Z,260.4
2018-11-10T03:47:18.025Z,260.2
2018-11-10T03:48:18.004Z,260.1
2018-11-10T03:49:17.920Z,260
2018-11-10T03:50:18.011Z,260
2018-11-10T03:51:18.028Z,260
2018-11-10T03:52:18.015Z,260
2018-11-10T03:53:18.026Z,260
2018-11-10T03:54:18.039Z,260
2018-11-10T03:55:17.956Z,260
2018-11-10T03:56:17.980Z,260
2018-11-10T03:57:18.021Z,300.7
2018-11-10T03:58:17.997Z,331.4
2018-11-10T03:59:18.665Z,321.3
2018-11-10T04:00:17.994Z,312.1
2018-11-10T04:01:17.953Z,308.2
2018-11-10T04:02:18.020Z,306.1
2018-11-10T04:03:17.933Z,295.4
2018-11-10T04:04:17.905Z,275.7
2018-11-10T04:05:17.979Z,267
2018-11-10T04:06:18.003Z,285.7
2018-11-10T04:07:18.000Z,296.6
2018-11-10T04:08:20.098Z,301.1
2018-11-10T04:09:17.989Z,302.6
2018-11-10T04:10:17.920Z,303.9
2018-11-10T04:11:17.965Z,304.5
2018-11-10T04:12:18.044Z,314.4
2018-11-10T04:13:17.960Z,333.9
2018-11-10T04:14:17.942Z,349.5
2018-11-10T04:15:18.016Z,349.8
2018-11-10T04:16:17.919Z,10
2018-11-10T04:17:18.360Z,23.9
2018-11-10T04:18:17.974Z,30
2018-11-10T04:19:18.185Z,32.7
2018-11-10T04:20:17.941Z,34
2018-11-10T04:21:17.933Z,34.5
2018-11-10T04:22:17.934Z,34.8
2018-11-10T04:23:18.012Z,34.9
2018-11-10T04:24:18.057Z,34.9
2018-11-10T04:25:17.923Z,35
2018-11-10T04:26:17.958Z,42.8
2018-11-10T04:27:17.931Z,63.1
2018-11-10T04:28:17.950Z,72.4
2018-11-10T04:29:17.994Z,76.5
2018-11-10T04:30:17.925Z,78.4
2018-11-10T04:31:18.070Z,79.3
2018-11-10T04:32:17.945Z,79.7
2018-11-10T04:33:17.974Z,79.8
2018-11-10T04:34:17.984Z,79.9
2018-11-10T04:35:17.981Z,80
2018-11-10T04:36:17.921Z,80
2018-11-10T04:37:17.980Z,80
2018-11-10T04:38:17.966Z,80
2018-11-10T04:39:18.034Z,80
2018-11-10T04:40:17.950Z,80
2018-11-10T04:41:17.957Z,57.7
2018-11-10T04:42:17.915Z,16.5
2018-11-10T04:43:17.994Z,0.5
2018-11-10T04:44:17.952Z,354.5
2018-11-10T04:45:18.064Z,352
2018-11-10T04:46:17.934Z,350.9
2018-11-10T04:47:17.968Z,350.4
2018-11-10T04:48:18.009Z,350.2
2018-11-10T04:49:17.964Z,350.1
2018-11-10T04:50:17.985Z,350
2018-11-10T04:51:17.975Z,350
2018-11-10T04:52:17.962Z,350
2018-11-10T04:53:18.005Z,350
2018-11-10T04:54:17.902Z,350
2018-11-10T04:55:17.894Z,350
2018-11-10T04:56:17.968Z,333.8
2018-11-10T04:57:17.942Z,317.9
2018-11-10T04:58:17.951Z,310.8
2018-11-10T04:59:17.914Z,307.7
2018-11-10T05:00:17.955Z,306.2
2018-11-10T05:01:18.059Z,305.6
2018-11-10T05:02:17.900Z,305.3
2018-11-10T05:03:18.065Z,305.7
2018-11-10T05:04:18.004Z,305.3
2018-11-10T05:05:17.970Z,305.2
2018-11-10T05:06:17.929Z,305.1
2018-11-10T05:07:17.915Z,305
2018-11-10T05:08:17.947Z,305
2018-11-10T05:09:17.946Z,305
2018-11-10T05:10:17.900Z,305
2018-11-10T05:11:17.971Z,305
2018-11-10T05:12:17.941Z,305
2018-11-10T05:13:18.028Z,305
2018-11-10T05:14:17.943Z,305
2018-11-10T05:15:18.021Z,305
2018-11-10T05:16:17.919Z,305
2018-11-10T05:17:17.960Z,305
2018-11-10T05:18:17.935Z,305
2018-11-10T05:19:17.969Z,305
2018-11-10T05:20:17.983Z,305
2018-11-10T05:21:17.941Z,305
2018-11-10T05:22:17.960Z,305
2018-11-10T05:23:17.938Z,305
2018-11-10T05:24:20.253Z,305
2018-11-10T05:25:17.984Z,304.7
2018-11-10T05:26:18.023Z,304.9
2018-11-10T05:27:17.925Z,304.9
2018-11-10T05:28:17.932Z,305
2018-11-10T05:29:17.970Z,305
2018-11-10T05:30:17.997Z,305
2018-11-10T05:31:18.137Z,305
2018-11-10T05:32:18.025Z,305
2018-11-10T05:33:17.906Z,305
2018-11-10T05:34:17.931Z,305
2018-11-10T05:35:19.408Z,305
2018-11-10T05:36:17.962Z,305
2018-11-10T05:37:17.970Z,305
2018-11-10T05:38:18.900Z,305
2018-11-10T05:39:17.932Z,305
2018-11-10T05:40:17.956Z,305
2018-11-10T05:41:17.974Z,305
2018-11-10T05:42:17.873Z,305
2018-11-10T05:43:17.972Z,305
2018-11-10T05:44:17.958Z,305
2018-11-10T05:45:17.964Z,305
2018-11-10T05:46:17.973Z,305
2018-11-10T05:47:17.928Z,305
2018-11-10T05:48:17.964Z,305
2018-11-10T05:49:17.889Z,305
2018-11-10T05:50:17.894Z,305
2018-11-10T05:51:17.901Z,305
2018-11-10T05:52:17.994Z,305
2018-11-10T05:53:17.913Z,305
2018-11-10T05:54:17.969Z,305
2018-11-10T05:55:18.604Z,305
2018-11-10T05:56:17.988Z,306.1
2018-11-10T05:57:18.084Z,122.3
2018-11-10T05:58:17.971Z,124.7
2018-11-10T05:59:17.981Z,124.9
2018-11-10T06:00:17.968Z,125
2018-11-10T06:01:17.972Z,125
2018-11-10T06:02:17.886Z,125
2018-11-10T06:03:18.646Z,125
2018-11-10T06:04:17.885Z,125
2018-11-10T06:05:17.939Z,125
2018-11-10T06:06:17.939Z,125
2018-11-10T06:07:17.914Z,125
2018-11-10T06:08:17.875Z,125
2018-11-10T06:09:18.137Z,125
2018-11-10T06:10:18.285Z,125
2018-11-10T06:11:17.952Z,123.9
2018-11-10T06:12:17.870Z,124.5
2018-11-10T06:13:18.432Z,123.8
2018-11-10T06:14:17.907Z,123.1
2018-11-10T06:15:17.924Z,120.9
2018-11-10T06:16:18.005Z,122
2018-11-10T06:17:18.582Z,117.8
2018-11-10T06:18:17.981Z,120.6
2018-11-10T06:19:17.921Z,121.1
2018-11-10T06:20:17.922Z,122.2
2018-11-10T06:21:18.004Z,119.6
2018-11-10T06:22:17.886Z,121.6
2018-11-10T06:23:17.891Z,122.8
2018-11-10T06:24:20.250Z,125
2018-11-10T06:25:17.958Z,124.6
2018-11-10T06:26:18.041Z,125
2018-11-10T06:27:17.901Z,124.5
2018-11-10T06:28:17.894Z,125.5
2018-11-10T06:29:17.911Z,125.5
2018-11-10T06:30:17.906Z,123.6
2018-11-10T06:31:17.995Z,118.2
2018-11-10T06:32:17.938Z,123.5
2018-11-10T06:33:17.901Z,125.4
2018-11-10T06:34:17.839Z,125.2
2018-11-10T06:35:17.958Z,126.4
2018-11-10T06:36:17.918Z,128.1
2018-11-10T06:37:17.869Z,127.8
2018-11-10T06:38:17.900Z,128.8
2018-11-10T06:39:17.869Z,126.3
2018-11-10T06:40:18.042Z,124.9
2018-11-10T06:41:18.052Z,125.5
2018-11-10T06:42:17.892Z,124.9
2018-11-10T06:43:18.068Z,128.8
2018-11-10T06:44:17.889Z,127
2018-11-10T06:45:17.961Z,127.8
2018-11-10T06:46:19.280Z,127.2
2018-11-10T06:47:18.018Z,135.8
2018-11-10T06:48:17.920Z,128
2018-11-10T06:49:17.973Z,126.3
2018-11-10T06:50:17.778Z,125.6
2018-11-10T06:51:17.936Z,128.9
2018-11-10T06:52:27.834Z,119.1
2018-11-10T06:53:17.849Z,116.7
2018-11-10T06:54:17.962Z,109
2018-11-10T06:55:17.936Z,348.1
2018-11-10T06:56:21.927Z,312.8
2018-11-10T06:57:21.676Z,308
2018-11-10T06:58:21.990Z,306.2
2018-11-10T06:59:21.664Z,305.6
2018-11-10T07:00:23.727Z,305
2018-11-10T07:01:21.083Z,305
2018-11-10T07:02:21.031Z,304.7
2018-11-10T07:03:19.607Z,296.7
2018-11-10T07:04:19.187Z,276.7
2018-11-10T07:05:20.565Z,267.5
2018-11-10T07:06:19.252Z,263.9
2018-11-10T07:07:23.181Z,261.8
2018-11-10T07:08:23.149Z,261.4
2018-11-10T07:09:19.280Z,260.6
2018-11-10T07:10:21.760Z,260.3
2018-11-10T07:11:19.895Z,224.4
2018-11-10T07:12:20.800Z,134
2018-11-10T07:13:23.335Z,120.3
2018-11-10T07:14:21.013Z,123.2
2018-11-10T07:15:19.860Z,124.2
2018-11-10T07:16:18.770Z,124.6
2018-11-10T07:17:22.640Z,124.8
2018-11-10T07:18:24.034Z,124.9
2018-11-10T07:19:20.734Z,125
2018-11-10T07:20:20.749Z,101.2
2018-11-10T07:21:21.335Z,89.5
2018-11-10T07:22:19.379Z,84.3
2018-11-10T07:23:19.591Z,82
2018-11-10T07:24:22.004Z,80.9
2018-11-10T07:25:22.111Z,81.9
2018-11-10T07:26:18.567Z,81.5
2018-11-10T07:27:18.752Z,90.4
2018-11-10T07:28:21.678Z,82.5
2018-11-10T07:29:20.476Z,81.1
2018-11-10T07:30:35.097Z,94.5
2018-11-10T07:31:23.301Z,86.3
2018-11-10T07:32:26.334Z,92.3
2018-11-10T07:33:21.540Z,85.6
2018-11-10T07:34:21.872Z,100.4
2018-11-10T07:35:24.423Z,111.2
2018-11-10T07:36:22.009Z,118.8
2018-11-10T07:37:21.974Z,122.1
2018-11-10T07:38:20.436Z,123.7
2018-11-10T07:39:18.666Z,124.4
2018-11-10T07:40:19.601Z,124.7
2018-11-10T07:41:21.392Z,114.6
2018-11-10T07:42:21.604Z,29.6
2018-11-10T07:43:28.037Z,0.8
2018-11-10T07:44:21.209Z,353
2018-11-10T07:45:21.638Z,327.3
2018-11-10T07:46:20.798Z,315.1
2018-11-10T07:47:17.836Z,309.5
2018-11-10T07:48:17.815Z,307.1
2018-11-10T07:49:18.054Z,305.2
2018-11-10T07:50:17.919Z,305.1
2018-11-10T07:51:18.027Z,305
2018-11-10T07:52:18.483Z,305
2018-11-10T07:53:17.815Z,303.7
2018-11-10T07:54:17.911Z,302.4
2018-11-10T07:55:17.819Z,291.4
2018-11-10T07:56:17.879Z,296.3
2018-11-10T07:57:17.821Z,301
2018-11-10T07:58:17.929Z,303.2
2018-11-10T07:59:17.830Z,304.1
2018-11-10T08:00:17.851Z,304.6
2018-11-10T08:01:17.849Z,304.8
2018-11-10T08:02:19.232Z,303.9
2018-11-10T08:03:17.947Z,277.2
2018-11-10T08:04:18.036Z,270.7
2018-11-10T08:05:17.832Z,278.8
2018-11-10T08:06:20.304Z,290.5
2018-11-10T08:07:20.685Z,296.2
2018-11-10T08:08:21.401Z,300.6
2018-11-10T08:09:20.251Z,300.9
2018-11-10T08:10:18.668Z,301.8
2018-11-10T08:11:19.012Z,287.5
2018-11-10T08:12:19.112Z,281.6
2018-11-10T08:13:26.663Z,275.3
2018-11-10T08:14:21.105Z,288.1
2018-11-10T08:15:19.070Z,290
2018-11-10T08:16:19.158Z,288
2018-11-10T08:17:19.805Z,288
2018-11-10T08:18:19.348Z,284.8
2018-11-10T08:19:21.522Z,284.4
2018-11-10T08:20:19.401Z,291.4
2018-11-10T08:21:20.799Z,291.4
2018-11-10T08:22:21.209Z,288.8
2018-11-10T08:23:19.340Z,292.3
2018-11-10T08:24:26.030Z,289.7
2018-11-10T08:25:22.254Z,290.2
2018-11-10T08:26:23.060Z,287.4
2018-11-10T08:27:22.453Z,286.7
2018-11-10T08:28:19.771Z,296.4
2018-11-10T08:29:19.541Z,301.1
2018-11-10T08:30:22.467Z,303.2
2018-11-10T08:31:19.616Z,303.9
2018-11-10T08:32:21.876Z,304.5
2018-11-10T08:33:23.913Z,304.8
2018-11-10T08:34:17.851Z,304.3
2018-11-10T08:35:18.042Z,304.7
2018-11-10T08:36:17.921Z,305.2
2018-11-10T08:37:17.899Z,301.8
2018-11-10T08:38:17.860Z,303.5
2018-11-10T08:39:17.985Z,297.4
2018-11-10T08:40:17.880Z,298.2
2018-11-10T08:41:17.909Z,294.1
2018-11-10T08:42:18.136Z,292
2018-11-10T08:43:17.812Z,294.6
2018-11-10T08:44:17.831Z,295.6
2018-11-10T08:45:17.955Z,299.5
2018-11-10T08:46:17.865Z,307.4
2018-11-10T08:47:17.878Z,330.7
2018-11-10T08:48:18.281Z,320
2018-11-10T08:49:18.064Z,311.7
2018-11-10T08:50:17.931Z,310.2
2018-11-10T08:51:17.896Z,329
2018-11-10T08:52:17.845Z,329.6
2018-11-10T08:53:17.928Z,332.2
2018-11-10T08:54:19.454Z,327.1
2018-11-10T08:55:17.933Z,317.6
2018-11-10T08:56:17.921Z,326.5
2018-11-10T08:57:17.851Z,324.1
2018-11-10T08:58:17.872Z,327.4
2018-11-10T08:59:18.036Z,339.8
2018-11-10T09:00:17.934Z,345.4
2018-11-10T09:01:17.911Z,347.9
2018-11-10T09:02:21.992Z,349
2018-11-10T09:03:17.843Z,349.5
2018-11-10T09:04:17.947Z,3.1
2018-11-10T09:05:17.858Z,3.4
2018-11-10T09:06:17.843Z,20.2
2018-11-10T09:07:18.087Z,15.9
2018-11-10T09:08:17.919Z,6.3
2018-11-10T09:09:17.836Z,357.4
2018-11-10T09:10:17.869Z,353.4
2018-11-10T09:11:17.930Z,351.6
2018-11-10T09:12:17.873Z,359
2018-11-10T09:13:21.444Z,354
2018-11-10T09:14:17.834Z,351.9
2018-11-10T09:15:18.054Z,350.9
2018-11-10T09:16:17.917Z,351.7
2018-11-10T09:17:17.831Z,350.8
2018-11-10T09:18:17.892Z,355.7
2018-11-10T09:19:17.858Z,352.6
2018-11-10T09:20:17.867Z,351.2
2018-11-10T09:21:18.114Z,350.6
2018-11-10T09:22:17.837Z,358.1
2018-11-10T09:23:17.861Z,4.6
2018-11-10T09:24:19.960Z,6.3
2018-11-10T09:25:17.810Z,2.6
2018-11-10T09:26:17.860Z,9
2018-11-10T09:27:17.852Z,6.3
2018-11-10T09:28:17.903Z,359.5
2018-11-10T09:29:17.943Z,0.4
2018-11-10T09:30:18.884Z,7.5
2018-11-10T09:31:17.832Z,21.5
2018-11-10T09:32:17.841Z,4.7
2018-11-10T09:33:17.837Z,356.6
2018-11-10T09:34:17.910Z,353.1
2018-11-10T09:35:21.198Z,349.4
2018-11-10T09:36:17.970Z,336.2
2018-11-10T09:37:17.894Z,324.3
2018-11-10T09:38:17.922Z,316.6
2018-11-10T09:39:17.905Z,322.1
2018-11-10T09:40:17.878Z,313.1
2018-11-10T09:41:17.821Z,308.7
2018-11-10T09:42:18.171Z,306.7
2018-11-10T09:43:17.859Z,305.8
2018-11-10T09:44:17.864Z,305.4
2018-11-10T09:45:17.974Z,305.2
2018-11-10T09:46:17.813Z,305.1
2018-11-10T09:47:17.937Z,305
2018-11-10T09:48:17.847Z,305
2018-11-10T09:49:17.871Z,305
2018-11-10T09:50:17.991Z,305
2018-11-10T09:51:18.961Z,305
2018-11-10T09:52:17.893Z,305
2018-11-10T09:53:17.963Z,305
2018-11-10T09:54:17.955Z,305
2018-11-10T09:55:17.826Z,305
2018-11-10T09:56:17.862Z,325.6
2018-11-10T09:57:17.845Z,7.6
2018-11-10T09:58:17.878Z,24.2
2018-11-10T09:59:17.848Z,30.4
2018-11-10T10:00:17.860Z,32.9
2018-11-10T10:01:18.157Z,34
2018-11-10T10:02:18.410Z,34.6
2018-11-10T10:03:17.945Z,34.8
2018-11-10T10:04:17.824Z,34.9
2018-11-10T10:05:17.794Z,35
2018-11-10T10:06:17.859Z,53.3
2018-11-10T10:07:17.941Z,68.1
2018-11-10T10:08:17.823Z,74.6
2018-11-10T10:09:17.837Z,77.5
2018-11-10T10:10:17.808Z,78.8
2018-11-10T10:11:17.960Z,79.5
2018-11-10T10:12:17.833Z,79.7
2018-11-10T10:13:18.061Z,79.9
2018-11-10T10:14:17.898Z,79.9
2018-11-10T10:15:17.766Z,80
2018-11-10T10:16:18.096Z,80
2018-11-10T10:17:17.820Z,80
2018-11-10T10:18:17.829Z,80
2018-11-10T10:19:18.017Z,80
2018-11-10T10:20:17.880Z,80
2018-11-10T10:21:17.844Z,80
2018-11-10T10:22:19.033Z,80
2018-11-10T10:23:17.878Z,80
2018-11-10T10:24:17.907Z,80
2018-11-10T10:25:17.821Z,80
2018-11-10T10:26:17.844Z,80
2018-11-10T10:27:17.835Z,80
2018-11-10T10:28:18.016Z,80
2018-11-10T10:29:17.896Z,80
2018-11-10T10:30:17.819Z,80
2018-11-10T10:31:17.874Z,80
2018-11-10T10:32:17.884Z,80
2018-11-10T10:33:17.906Z,80
2018-11-10T10:34:18.079Z,83.1
2018-11-10T10:35:19.865Z,104.1
2018-11-10T10:36:17.924Z,105.5
2018-11-10T10:37:17.812Z,88.6
2018-11-10T10:38:17.794Z,55.1
2018-11-10T10:39:17.837Z,59.3
2018-11-10T10:40:17.939Z,75.7
2018-11-10T10:41:17.871Z,104.6
2018-11-10T10:42:18.332Z,116
2018-11-10T10:43:18.288Z,118.8
2018-11-10T10:44:18.208Z,122.2
2018-11-10T10:45:17.864Z,123.1
2018-11-10T10:46:20.348Z,124.9
2018-11-10T10:47:17.858Z,133.2
2018-11-10T10:48:18.368Z,132.4
2018-11-10T10:49:18.097Z,140.1
2018-11-10T10:50:17.833Z,131.8
2018-11-10T10:51:17.993Z,128.1
2018-11-10T10:52:17.861Z,127.4
2018-11-10T10:53:17.911Z,143.6
2018-11-10T10:54:17.846Z,158.4
2018-11-10T10:55:17.846Z,144.9
2018-11-10T10:56:17.966Z,133.9
2018-11-10T10:57:17.853Z,127.1
2018-11-10T10:58:17.951Z,121.5
2018-11-10T10:59:17.861Z,123.4
2018-11-10T11:00:17.804Z,120.7
2018-11-10T11:01:17.921Z,132.4
2018-11-10T11:02:20.829Z,152.7
2018-11-10T11:03:23.322Z,148.3
2018-11-10T11:04:23.821Z,135.3
2018-11-10T11:05:24.023Z,138.6
2018-11-10T11:06:20.876Z,129.7
2018-11-10T11:07:17.908Z,127.1
2018-11-10T11:08:17.885Z,125.4
2018-11-10T11:09:17.879Z,125.6
2018-11-10T11:10:17.854Z,125.3
2018-11-10T11:11:17.905Z,126.1
2018-11-10T11:12:17.877Z,125.5
2018-11-10T11:13:17.898Z,125.2
2018-11-10T11:14:17.822Z,138.9
2018-11-10T11:15:18.091Z,131.3
2018-11-10T11:16:17.889Z,127.9
2018-11-10T11:17:17.837Z,131.2
2018-11-10T11:18:17.830Z,114.8
2018-11-10T11:19:17.854Z,158.1
2018-11-10T11:20:17.876Z,163.6
2018-11-10T11:21:17.885Z,78.1
2018-11-10T11:22:17.905Z,52.8
2018-11-10T11:23:17.825Z,64.9
2018-11-10T11:24:17.904Z,58
2018-11-10T11:25:17.852Z,22.6
2018-11-10T11:26:17.856Z,41.6
2018-11-10T11:27:17.819Z,63.4
2018-11-10T11:28:17.898Z,58
2018-11-10T11:29:18.071Z,60.7
2018-11-10T11:30:17.828Z,68.9
2018-11-10T11:31:18.215Z,65.9
2018-11-10T11:32:18.071Z,48.2
2018-11-10T11:33:17.880Z,28
2018-11-10T11:34:17.861Z,29.6
2018-11-10T11:35:18.007Z,32.6
2018-11-10T11:36:17.830Z,46.9
2018-11-10T11:37:17.823Z,59.2
2018-11-10T11:38:17.824Z,45.8
2018-11-10T11:39:17.876Z,39.9
2018-11-10T11:40:17.855Z,37.2
2018-11-10T11:41:18.089Z,36
2018-11-10T11:42:17.866Z,44.7
2018-11-10T11:43:17.851Z,62
2018-11-10T11:44:17.915Z,71.9
2018-11-10T11:45:17.867Z,76.3
2018-11-10T11:46:18.199Z,78.3
2018-11-10T11:47:17.862Z,67
2018-11-10T11:48:17.854Z,21.9
2018-11-10T11:49:17.858Z,2.4
2018-11-10T11:50:17.863Z,10.5
2018-11-10T11:51:20.785Z,24.3
2018-11-10T11:52:17.835Z,30.2
2018-11-10T11:53:17.845Z,32.8
2018-11-10T11:54:17.822Z,34
2018-11-10T11:55:17.818Z,34.5
2018-11-10T11:56:17.828Z,34.8
2018-11-10T11:57:17.817Z,34.9
2018-11-10T11:58:18.127Z,35
2018-11-10T11:59:17.884Z,35
2018-11-10T12:00:17.825Z,35
2018-11-10T12:01:17.775Z,35
2018-11-10T12:02:25.830Z,35
2018-11-10T12:03:17.872Z,35
2018-11-10T12:04:17.954Z,35
2018-11-10T12:05:17.842Z,35
2018-11-10T12:06:17.854Z,35
2018-11-10T12:07:17.843Z,35
2018-11-10T12:08:19.607Z,35
2018-11-10T12:09:17.957Z,35
2018-11-10T12:10:17.827Z,35
2018-11-10T12:11:17.847Z,35
2018-11-10T12:12:17.892Z,35
2018-11-10T12:13:23.628Z,35
2018-11-10T12:14:17.872Z,78.7
2018-11-10T12:15:18.026Z,107.3
2018-11-10T12:16:27.183Z,117.7
2018-11-10T12:17:17.885Z,121.8
2018-11-10T12:18:17.883Z,110.5
2018-11-10T12:19:17.862Z,93.6
2018-11-10T12:20:17.857Z,86.1
2018-11-10T12:21:17.836Z,82.8
2018-11-10T12:22:22.911Z,61.4
2018-11-10T12:23:17.897Z,36.3
2018-11-10T12:24:21.782Z,22.9
2018-11-10T12:25:17.869Z,17.1
2018-11-10T12:26:17.838Z,14.6
2018-11-10T12:27:17.942Z,13.5
2018-11-10T12:28:17.866Z,18
2018-11-10T12:29:17.916Z,27.1
2018-11-10T12:30:17.862Z,31.4
2018-11-10T12:31:17.851Z,33.3
2018-11-10T12:32:24.251Z,81.4
2018-11-10T12:33:20.231Z,108.7
2018-11-10T12:34:17.876Z,118.3
2018-11-10T12:35:19.193Z,122
2018-11-10T12:36:17.823Z,123.6
2018-11-10T12:37:17.830Z,124.4
2018-11-10T12:38:17.907Z,124.7
2018-11-10T12:39:19.251Z,124.9
2018-11-10T12:40:20.259Z,124.9
2018-11-10T12:41:20.846Z,125
2018-11-10T12:42:17.835Z,125
2018-11-10T12:43:19.045Z,125
2018-11-10T12:44:23.056Z,106.6
2018-11-10T12:45:17.892Z,91.9
2018-11-10T12:46:17.896Z,93.6
2018-11-10T12:47:17.832Z,110.9
2018-11-10T12:48:17.920Z,118.6
2018-11-10T12:49:18.121Z,122.1
2018-11-10T12:50:19.207Z,123.7
2018-11-10T12:51:23.043Z,124.4
2018-11-10T12:52:17.979Z,124.7
2018-11-10T12:53:17.823Z,124.9
2018-11-10T12:54:17.865Z,124.9
2018-11-10T12:55:18.028Z,125
2018-11-10T12:56:17.923Z,125
2018-11-10T12:57:17.865Z,125
2018-11-10T12:58:18.264Z,125
2018-11-10T12:59:17.929Z,125
2018-11-10T13:00:18.001Z,125
2018-11-10T13:01:17.871Z,125
2018-11-10T13:02:21.148Z,125
2018-11-10T13:03:19.502Z,125
2018-11-10T13:04:17.865Z,125.5
2018-11-10T13:05:17.813Z,143.1
2018-11-10T13:06:17.861Z,156.9
2018-11-10T13:07:22.621Z,157.8
2018-11-10T13:08:18.178Z,153.3
2018-11-10T13:09:17.860Z,139.2
2018-11-10T13:10:17.840Z,131.4
2018-11-10T13:11:18.009Z,128
2018-11-10T13:12:17.932Z,126.4
2018-11-10T13:13:17.822Z,137.8
2018-11-10T13:14:17.965Z,155.4
2018-11-10T13:15:17.838Z,148.8
2018-11-10T13:16:18.003Z,155
2018-11-10T13:17:17.978Z,163.2
2018-11-10T13:18:17.862Z,166.9